Latest Weather Observations for Orbost

IDV60801

Issued at 11:35 am EST Friday 22 August 2014 (issued every 30 minutes, with the page automatically refreshed every 10 minutes)

About weather observations | Map of weather stations | Latest weather observations for VIC | Other Formats
Station Details ID: 084145 Name: ORBOST Lat: -37.69 Lon: 148.47 Height: 62.65 m
Data from the previous 72 hours. | See also: Recent months at Orbost
Date/Time
EST
Temp
°C
App
Temp
°C
Dew
Point
Rel
Hum
%
Delta-T
°C
Wind Press
QNH
hPa
Press
MSL
hPa
Rain
since 9 am
mm
Dir
 
Spd
km/h
Gust
km/h
Spd
kts
Gust
kts
22/11:30am 16.2 14.1 8.2 59 4.0 E 9 17 5 9 1031.3 1031.4 0.0
22/11:00am 16.6 14.8 8.1 57 4.3 NE 7 15 4 8 1031.8 1031.9 0.0
22/10:30am 15.6 13.7 7.4 58 4.1 NE 7 11 4 6 1032.2 1032.3 0.0
22/10:00am 14.9 13.1 7.2 60 3.8 ENE 6 13 3 7 1032.4 1032.5 0.0
22/09:30am 14.3 13.2 8.5 68 2.9 NE 4 7 2 4 1032.5 1032.6 0.0
22/09:00am 10.4 10.1 8.8 90 0.8 CALM 0 0 0 0 1032.7 1032.8 0.0
22/08:30am 7.8 7.2 7.2 96 0.3 CALM 0 0 0 0 1032.8 1032.9 0.0
22/08:00am 5.9 4.9 5.5 97 0.2 CALM 0 0 0 0 1032.6 1032.7 0.0
22/07:30am 5.2 4.0 4.6 96 0.3 CALM 0 4 0 2 1032.4 1032.5 0.0
22/07:00am 5.1 3.8 4.2 94 0.4 CALM 0 0 0 0 1032.0 1032.1 0.0
22/06:30am 6.2 4.4 5.5 95 0.3 ENE 4 6 2 3 1031.6 1031.7 0.0
22/06:00am 5.6 4.4 4.6 93 0.4 CALM 0 0 0 0 1031.4 1031.5 0.0
22/05:30am 6.3 5.3 5.4 94 0.4 CALM 0 0 0 0 1031.2 1031.3 0.0
22/05:00am 5.2 3.9 4.2 93 0.4 CALM 0 2 0 1 1031.2 1031.3 0.0
22/04:30am 6.5 5.4 5.3 92 0.5 CALM 0 0 0 0 1031.1 1031.2 0.0
22/04:00am 6.6 5.2 5.6 93 0.4 NNW 2 4 1 2 1030.8 1030.9 0.0
22/03:30am 5.7 4.1 4.3 91 0.6 W 2 4 1 2 1030.9 1031.0 0.0
22/03:00am 6.3 5.2 4.9 91 0.6 CALM 0 4 0 2 1030.8 1030.9 0.0
22/02:30am 9.7 7.5 6.2 79 1.6 NNE 7 11 4 6 1030.9 1031.0 0.0
22/02:00am 8.9 6.9 6.3 84 1.2 NNE 6 11 3 6 1031.2 1031.3 0.0
22/01:30am 7.6 6.7 6.1 90 0.7 CALM 0 4 0 2 1031.3 1031.4 0.0
22/01:00am 6.9 4.8 6.0 94 0.4 E 6 9 3 5 1031.4 1031.5 0.0
22/12:30am 6.8 5.1 5.7 93 0.5 E 4 6 2 3 1031.5 1031.6 0.0
22/12:00am 7.7 5.8 6.5 92 0.5 E 6 7 3 4 1031.5 1031.6 0.0
 
Date/Time
EST
Temp
°C
App
Temp
°C
Dew
Point
Rel
Hum
%
Delta-T
°C
Wind Press
QNH
hPa
Press
MSL
hPa
Rain
since 9 am
mm
Dir
 
Spd
km/h
Gust
km/h
Spd
kts
Gust
kts
21/11:30pm 7.7 6.1 6.3 91 0.6 E 4 6 2 3 1031.5 1031.6 0.0
21/11:00pm 8.1 6.9 6.4 89 0.8 ENE 2 6 1 3 1031.5 1031.6 0.0
21/10:30pm 9.2 7.8 7.2 87 0.9 ENE 4 4 2 2 1031.4 1031.5 0.0
21/10:00pm 9.1 8.1 7.2 88 0.9 E 2 4 1 2 1031.4 1031.5 0.0
21/09:30pm 10.0 9.1 7.9 87 1.0 ENE 2 7 1 4 1031.3 1031.4 0.0
21/09:00pm 10.2 9.8 8.1 87 1.0 CALM 0 0 0 0 1031.1 1031.2 0.0
21/08:30pm 10.4 8.8 8.0 85 1.2 ESE 6 7 3 4 1030.9 1031.0 0.0
21/08:00pm 10.7 9.6 8.3 85 1.2 ESE 4 7 2 4 1030.8 1030.9 0.0
21/07:30pm 10.9 9.8 8.5 85 1.2 ESE 4 7 2 4 1030.5 1030.6 0.0
21/07:00pm 11.4 10.0 9.0 85 1.2 ESE 6 11 3 6 1030.3 1030.4 0.0
21/06:30pm 11.7 10.4 9.1 84 1.3 ESE 6 11 3 6 1030.1 1030.2 0.0
21/06:00pm 12.3 10.8 9.1 81 1.6 ESE 7 15 4 8 1029.9 1030.0 0.0
21/05:30pm 13.1 11.2 9.2 77 2.0 E 9 15 5 8 1029.5 1029.6 0.0
21/05:00pm 14.2 11.9 9.0 71 2.6 E 11 19 6 10 1029.1 1029.2 0.0
21/04:30pm 14.9 12.6 9.1 68 3.0 E 11 20 6 11 1028.9 1029.0 0.0
21/04:00pm 15.6 13.8 9.3 66 3.2 ESE 9 19 5 10 1028.8 1028.9 0.0
21/03:30pm 15.9 14.0 9.1 64 3.5 ESE 9 15 5 8 1028.6 1028.7 0.0
21/03:00pm 16.4 14.3 9.6 64 3.5 E 11 22 6 12 1028.7 1028.8 0.0
21/02:30pm 16.2 14.0 9.4 64 3.5 ESE 11 19 6 10 1028.7 1028.8 0.0
21/02:00pm 15.8 13.8 10.3 70 2.9 SE 11 22 6 12 1028.8 1028.9 0.0
21/01:30pm 16.4 14.5 8.9 61 3.9 ESE 9 17 5 9 1029.1 1029.2 0.0
21/01:00pm 16.1 14.0 8.3 60 3.9 ESE 9 19 5 10 1029.4 1029.5 0.0
21/12:30pm 16.0 14.0 8.5 61 3.8 SE 9 17 5 9 1029.7 1029.8 0.0
21/12:00pm 15.3 12.8 8.1 62 3.6 ESE 11 17 6 9 1030.2 1030.3 0.0
21/11:30am 15.2 13.6 8.7 65 3.3 SE 7 15 4 8 1030.6 1030.7 0.0
21/11:00am 14.3 12.6 8.3 67 3.0 ESE 7 15 4 8 1031.0 1031.1 0.0
21/10:30am 13.0 11.8 7.9 71 2.5 SE 4 7 2 4 1031.3 1031.4 0.0
21/10:00am 12.0 11.5 7.9 76 2.0 CALM 0 6 0 3 1031.4 1031.5 0.0
21/09:30am 11.2 10.1 8.6 84 1.3 ESE 4 7 2 4 1031.4 1031.5 0.0
21/09:00am 8.0 7.2 6.3 89 0.8 CALM 0 0 0 0 1031.4 1031.5 0.0
21/08:30am 6.4 5.4 5.8 96 0.3 CALM 0 0 0 0 1031.5 1031.6 0.0
21/08:00am 5.0 3.4 4.7 98 0.1 SE 2 4 1 2 1031.2 1031.3 0.0
21/07:30am 4.3 2.6 4.0 98 0.1 N 2 4 1 2 1030.9 1031.0 0.0
21/07:00am 3.9 1.7 3.6 98 0.1 N 4 6 2 3 1030.6 1030.7 0.0
21/06:30am 3.3 1.4 3.0 98 0.1 N 2 4 1 2 1030.2 1030.3 0.0
21/06:00am 3.9 2.5 3.6 98 0.1 CALM 0 0 0 0 1029.8 1029.9 0.0
21/05:30am 3.6 2.2 3.3 98 0.1 CALM 0 0 0 0 1029.7 1029.8 0.0
21/05:00am 4.0 2.6 3.6 97 0.2 CALM 0 0 0 0 1029.6 1029.7 0.0
21/04:30am 4.0 2.6 3.6 97 0.2 CALM 0 0 0 0 1029.6 1029.7 0.0
21/04:00am 3.4 1.9 2.8 96 0.2 CALM 0 0 0 0 1029.5 1029.6 0.0
21/03:30am 4.8 3.5 4.2 96 0.3 CALM 0 0 0 0 1029.4 1029.5 0.0
21/03:00am 4.4 1.9 3.8 96 0.2 NNE 6 7 3 4 1029.3 1029.4 0.0
21/02:30am 4.5 2.0 3.9 96 0.3 N 6 6 3 3 1029.2 1029.3 0.0
21/02:00am 3.5 0.8 2.8 95 0.3 NNW 6 7 3 4 1029.4 1029.5 0.0
21/01:30am 5.0 3.8 4.4 96 0.3 CALM 0 0 0 0 1029.4 1029.5 0.0
21/01:00am 4.6 2.9 4.0 96 0.2 ESE 2 4 1 2 1029.5 1029.6 0.0
21/12:30am 5.0 3.0 4.3 95 0.3 N 4 6 2 3 1029.4 1029.5 0.0
21/12:00am 5.2 3.6 4.5 95 0.3 N 2 4 1 2 1029.5 1029.6 0.0
 
Date/Time
EST
Temp
°C
App
Temp
°C
Dew
Point
Rel
Hum
%
Delta-T
°C
Wind Press
QNH
hPa
Press
MSL
hPa
Rain
since 9 am
mm
Dir
 
Spd
km/h
Gust
km/h
Spd
kts
Gust
kts
20/11:30pm 5.4 4.2 4.5 94 0.4 CALM 0 0 0 0 1029.6 1029.7 0.0
20/11:00pm 5.2 3.9 4.3 94 0.4 CALM 0 4 0 2 1029.4 1029.5 0.0
20/10:30pm 6.1 3.8 4.7 91 0.6 N 6 6 3 3 1029.3 1029.4 0.0
20/10:00pm 6.1 4.9 4.7 91 0.6 CALM 0 0 0 0 1029.4 1029.5 0.0
20/09:30pm 6.8 4.6 5.3 90 0.7 N 6 7 3 4 1029.5 1029.6 0.0
20/09:00pm 6.7 4.3 5.2 90 0.7 N 7 7 4 4 1029.4 1029.5 0.0
20/08:30pm 6.5 4.2 5.0 90 0.7 N 6 7 3 4 1029.3 1029.4 0.0
20/08:00pm 7.0 4.8 5.2 88 0.8 N 6 7 3 4 1029.2 1029.3 0.0
20/07:30pm 6.5 4.2 4.7 88 0.8 N 6 6 3 3 1029.0 1029.1 0.0
20/07:00pm 7.0 5.8 4.5 84 1.1 CALM 0 0 0 0 1028.8 1028.9 0.0
20/06:30pm 8.1 7.0 5.0 81 1.4 CALM 0 0 0 0 1028.4 1028.5 0.0
20/06:00pm 9.6 8.0 4.6 71 2.2 SE 2 4 1 2 1028.0 1028.0 0.0
20/05:30pm 10.2 8.7 5.0 70 2.4 SSE 2 4 1 2 1027.5 1027.5 0.0
20/05:00pm 11.3 9.4 5.0 65 2.9 S 4 7 2 4 1027.1 1027.1 0.0
20/04:30pm 11.8 8.8 4.3 60 3.4 S 9 13 5 7 1026.8 1026.8 0.0
20/04:00pm 12.6 10.4 5.1 60 3.5 SSE 6 9 3 5 1026.6 1026.6 0.0
20/03:30pm 12.9 10.1 5.1 59 3.6 S 9 13 5 7 1026.4 1026.4 0.0
20/03:00pm 13.2 10.5 5.4 59 3.6 SW 9 17 5 9 1026.3 1026.3 0.0
20/02:30pm 13.5 11.4 3.8 52 4.4 W 4 7 2 4 1026.2 1026.2 0.0
20/02:00pm 13.4 10.7 3.8 52 4.3 W 7 11 4 6 1026.2 1026.2 0.0
20/01:30pm 13.2 10.6 3.3 51 4.4 WNW 6 11 3 6 1026.2 1026.2 0.0
20/01:00pm 13.0 10.0 4.2 55 4.0 W 9 15 5 8 1026.3 1026.3 0.0
20/12:30pm 13.0 10.1 4.4 56 3.9 W 9 15 5 8 1026.6 1026.6 0.0
20/12:00pm 13.1 10.4 5.5 60 3.5 WNW 9 13 5 7 1026.8 1026.8 0.0
20/11:30am 11.8 8.8 4.3 60 3.4 NW 9 13 5 7 1027.2 1027.2 0.0
20/11:00am 13.3 11.0 5.0 57 3.8 NW 6 13 3 7 1027.3 1027.3 0.0
20/10:30am 11.9 9.6 5.8 66 2.9 WNW 7 9 4 5 1027.3 1027.3 0.0
20/10:00am 11.0 8.8 6.0 71 2.3 WNW 7 13 4 7 1027.2 1027.2 0.0
20/09:30am 10.8 8.9 6.6 75 2.0 WNW 6 9 3 5 1027.1 1027.1 0.0
20/09:00am 10.0 8.4 6.5 79 1.6 WNW 4 6 2 3 1026.9 1026.9 0.2
20/08:30am 9.5 8.3 6.4 81 1.4 NW 2 4 1 2 1026.8 1026.8 0.2
20/08:00am 9.0 7.1 6.6 85 1.1 NNW 6 6 3 3 1026.7 1026.7 0.2
20/07:30am 8.5 7.0 6.6 88 0.9 NNW 4 6 2 3 1026.3 1026.3 0.2
20/07:00am 8.2 6.0 6.3 88 0.9 N 7 7 4 4 1026.0 1026.0 0.2
20/06:30am 7.8 5.7 5.6 86 1.0 NNW 6 7 3 4 1025.7 1025.7 0.2
20/06:00am 8.3 6.2 5.6 83 1.2 NNW 6 9 3 5 1025.5 1025.5 0.2
20/05:30am 8.6 6.9 5.9 83 1.2 NNW 4 6 2 3 1025.4 1025.4 0.2
20/05:00am 8.6 6.9 6.1 84 1.1 WNW 4 7 2 4 1025.3 1025.3 0.2
20/04:30am 8.8 7.1 5.7 81 1.4 W 4 6 2 3 1025.1 1025.1 0.2
20/04:00am 9.1 7.3 5.3 77 1.7 NW 4 7 2 4 1024.9 1024.9 0.2
20/03:30am 9.1 7.3 5.3 77 1.7 NNW 4 6 2 3 1024.7 1024.7 0.2
20/03:00am 9.3 6.5 5.3 76 1.8 N 9 11 5 6 1024.6 1024.6 0.2
20/02:30am 8.8 6.7 5.9 82 1.3 NNW 6 7 3 4 1024.7 1024.7 0.2
20/02:00am 9.0 7.6 5.6 79 1.5 NNW 2 4 1 2 1025.1 1025.1 0.2
20/01:30am 9.2 7.0 5.2 76 1.8 N 6 7 3 4 1025.0 1025.0 0.2
20/01:00am 9.3 6.9 5.1 75 1.9 N 7 9 4 5 1025.0 1025.0 0.2
20/12:30am 9.2 7.4 5.2 76 1.8 N 4 7 2 4 1025.1 1025.1 0.2
20/12:00am 9.4 7.1 5.0 74 2.0 N 6 7 3 4 1025.3 1025.3 0.2
 
Date/Time
EST
Temp
°C
App
Temp
°C
Dew
Point
Rel
Hum
%
Delta-T
°C
Wind Press
QNH
hPa
Press
MSL
hPa
Rain
since 9 am
mm
Dir
 
Spd
km/h
Gust
km/h
Spd
kts
Gust
kts
19/11:30pm 10.3 8.1 3.3 62 3.1 SSW 4 7 2 4 1025.3 1025.3 0.2
19/11:00pm 9.7 8.0 5.7 76 1.8 WNW 4 6 2 3 1025.4 1025.4 0.2
19/10:30pm 9.7 8.0 5.9 77 1.8 NW 4 6 2 3 1025.3 1025.3 0.2
19/10:00pm 9.8 7.9 5.0 72 2.2 WNW 4 6 2 3 1025.3 1025.3 0.2
19/09:30pm 10.5 8.0 4.0 64 2.9 WSW 6 7 3 4 1025.2 1025.2 0.2
19/09:00pm 10.4 7.9 4.5 67 2.6 W 7 11 4 6 1025.2 1025.2 0.2
19/08:30pm 10.0 9.0 7.3 83 1.3 WNW 2 4 1 2 1025.2 1025.2 0.2
19/08:00pm 9.9 8.9 7.5 85 1.1 WNW 2 4 1 2 1025.0 1025.0 0.2
19/07:30pm 10.1 8.8 7.5 84 1.2 WNW 4 4 2 2 1025.0 1025.0 0.2
19/07:00pm 10.4 9.0 7.1 80 1.6 W 4 4 2 2 1024.7 1024.7 0.2
19/06:30pm 10.5 9.0 6.8 78 1.8 WSW 4 6 2 3 1024.5 1024.5 0.2
19/06:00pm 10.7 8.8 6.8 77 1.8 SW 6 9 3 5 1024.1 1024.1 0.2
19/05:30pm 10.9 9.1 7.2 78 1.8 SW 6 9 3 5 1023.9 1023.9 0.2
19/05:00pm 10.8 8.7 6.7 76 1.9 SW 7 11 4 6 1023.6 1023.7 0.2
19/04:30pm 11.4 8.6 7.1 75 2.1 SSW 11 17 6 9 1023.4 1023.5 0.2
19/04:00pm 11.6 8.5 7.1 74 2.2 SW 13 22 7 12 1023.3 1023.4 0.2
19/03:30pm 11.9 9.3 7.6 75 2.1 SSW 11 19 6 10 1023.1 1023.2 0.2
19/03:00pm 12.7 9.9 8.4 75 2.1 SSW 13 19 7 10 1023.0 1023.1 0.2
19/02:30pm 12.8 9.6 8.5 75 2.1 SSW 15 22 8 12 1022.9 1023.0 0.2
19/02:00pm 12.9 9.7 8.4 74 2.2 SSW 15 20 8 11 1022.7 1022.8 0.2
19/01:30pm 12.8 9.2 8.3 74 2.2 SSW 17 24 9 13 1022.6 1022.7 0.2
19/01:00pm 12.7 9.1 8.4 75 2.1 SSW 17 22 9 12 1022.7 1022.8 0.2
19/12:30pm 12.9 10.3 9.4 79 1.8 SSW 13 19 7 10 1022.9 1023.0 0.2
19/12:00pm 13.4 10.3 7.2 66 3.0 SSW 13 19 7 10 1023.0 1023.1 0.0

Other Formats:

Comma delimited format used in spreadsheet applications
http://www.bom.gov.au/fwo/IDV60801/IDV60801.95918.axf

JavaScript Object Notation format (JSON) in row-major order
http://www.bom.gov.au/fwo/IDV60801/IDV60801.95918.json